sensor_id;sensor_type;location;lat;lon;timestamp;pressure;altitude;pressure_sealevel;temperature;humidity
75219;BME280;63801;49.414;19.474;2022-12-10T00:01:31;92225.47;;;2.02;77.96
75219;BME280;63801;49.414;19.474;2022-12-10T00:03:32;92229.78;;;2.06;78.13
75219;BME280;63801;49.414;19.474;2022-12-10T00:05:34;92229.47;;;2.08;78.14
75219;BME280;63801;49.414;19.474;2022-12-10T00:07:34;92234.41;;;2.09;78.21
75219;BME280;63801;49.414;19.474;2022-12-10T00:09:35;92238.97;;;2.09;78.12
75219;BME280;63801;49.414;19.474;2022-12-10T00:11:36;92228.13;;;2.02;78.41
75219;BME280;63801;49.414;19.474;2022-12-10T00:13:37;92235.78;;;2.03;78.49
75219;BME280;63801;49.414;19.474;2022-12-10T00:15:37;92229.53;;;1.99;78.36
75219;BME280;63801;49.414;19.474;2022-12-10T00:17:37;92232.88;;;1.96;78.35
75219;BME280;63801;49.414;19.474;2022-12-10T00:19:38;92230.78;;;1.90;78.46
75219;BME280;63801;49.414;19.474;2022-12-10T00:21:38;92229.13;;;1.85;78.69
75219;BME280;63801;49.414;19.474;2022-12-10T00:23:39;92207.41;;;1.71;78.51
75219;BME280;63801;49.414;19.474;2022-12-10T00:25:40;92231.22;;;1.79;78.72
75219;BME280;63801;49.414;19.474;2022-12-10T00:27:40;92229.53;;;1.75;78.82
75219;BME280;63801;49.414;19.474;2022-12-10T00:29:40;92229.09;;;1.73;78.82
75219;BME280;63801;49.414;19.474;2022-12-10T00:31:41;92226.88;;;1.75;78.80
75219;BME280;63801;49.414;19.474;2022-12-10T00:33:42;92227.66;;;1.75;78.55
75219;BME280;63801;49.414;19.474;2022-12-10T00:35:43;92231.22;;;1.79;78.80
75219;BME280;63801;49.414;19.474;2022-12-10T00:37:43;92231.31;;;1.83;78.87
75219;BME280;63801;49.414;19.474;2022-12-10T00:39:43;92234.44;;;1.85;78.79
75219;BME280;63801;49.414;19.474;2022-12-10T00:41:44;92241.28;;;1.86;78.66
75219;BME280;63801;49.414;19.474;2022-12-10T00:43:44;92226.69;;;1.80;78.69
75219;BME280;63801;49.414;19.474;2022-12-10T00:45:45;92218.91;;;1.75;78.66
75219;BME280;63801;49.414;19.474;2022-12-10T00:47:45;92248.91;;;1.88;78.43
75219;BME280;63801;49.414;19.474;2022-12-10T00:49:45;92223.44;;;1.74;78.53
75219;BME280;63801;49.414;19.474;2022-12-10T00:51:46;92246.06;;;1.93;78.44
75219;BME280;63801;49.414;19.474;2022-12-10T00:53:48;92248.38;;;1.94;78.32
75219;BME280;63801;49.414;19.474;2022-12-10T00:55:48;92249.91;;;1.95;78.44
75219;BME280;63801;49.414;19.474;2022-12-10T00:57:49;92254.13;;;1.96;78.58
75219;BME280;63801;49.414;19.474;2022-12-10T00:59:50;92242.19;;;1.90;78.43
75219;BME280;63801;49.414;19.474;2022-12-10T01:01:50;92262.56;;;1.98;78.47
75219;BME280;63801;49.414;19.474;2022-12-10T01:03:53;92261.44;;;1.99;78.59
75219;BME280;63801;49.414;19.474;2022-12-10T01:05:54;92260.69;;;1.99;78.58
75219;BME280;63801;49.414;19.474;2022-12-10T01:07:54;92261.56;;;2.03;78.19
75219;BME280;63801;49.414;19.474;2022-12-10T01:09:54;92263.88;;;2.04;78.47
75219;BME280;63801;49.414;19.474;2022-12-10T01:11:57;92269.31;;;2.08;78.38
75219;BME280;63801;49.414;19.474;2022-12-10T01:13:57;92266.31;;;2.09;78.56
75219;BME280;63801;49.414;19.474;2022-12-10T01:16:01;92260.13;;;2.05;78.62
75219;BME280;63801;49.414;19.474;2022-12-10T01:18:02;92270.84;;;2.09;78.63
75219;BME280;63801;49.414;19.474;2022-12-10T01:20:02;92273.84;;;2.07;78.34
75219;BME280;63801;49.414;19.474;2022-12-10T01:22:03;92273.09;;;2.07;78.65
75219;BME280;63801;49.414;19.474;2022-12-10T01:24:04;92259.78;;;2.07;78.46
75219;BME280;63801;49.414;19.474;2022-12-10T01:26:10;92263.22;;;2.07;78.31
75219;BME280;63801;49.414;19.474;2022-12-10T01:28:11;92261.00;;;2.09;78.58
75219;BME280;63801;49.414;19.474;2022-12-10T01:30:11;92261.78;;;2.10;78.38
75219;BME280;63801;49.414;19.474;2022-12-10T01:32:12;92262.56;;;2.10;78.41
75219;BME280;63801;49.414;19.474;2022-12-10T01:34:13;92254.47;;;2.07;78.49
75219;BME280;63801;49.414;19.474;2022-12-10T01:36:34;92266.88;;;2.15;78.52
75219;BME280;63801;49.414;19.474;2022-12-10T01:38:35;92255.25;;;2.07;77.94
75219;BME280;63801;49.414;19.474;2022-12-10T01:40:38;92253.13;;;2.01;78.44
75219;BME280;63801;49.414;19.474;2022-12-10T01:42:39;92261.88;;;2.01;78.61
75219;BME280;63801;49.414;19.474;2022-12-10T01:46:44;92252.34;;;2.00;78.37
75219;BME280;63801;49.414;19.474;2022-12-10T01:48:45;92259.44;;;2.08;78.40
75219;BME280;63801;49.414;19.474;2022-12-10T01:50:46;92263.22;;;2.07;78.51
75219;BME280;63801;49.414;19.474;2022-12-10T01:52:47;92254.78;;;2.05;78.63
75219;BME280;63801;49.414;19.474;2022-12-10T01:54:47;92248.28;;;2.03;78.59
75219;BME280;63801;49.414;19.474;2022-12-10T01:56:51;92235.53;;;1.96;78.39
75219;BME280;63801;49.414;19.474;2022-12-10T01:58:56;92251.25;;;2.01;78.48
75219;BME280;63801;49.414;19.474;2022-12-10T02:03:51;92262.56;;;1.98;78.77
75219;BME280;63801;49.414;19.474;2022-12-10T02:06:04;92261.22;;;1.92;78.84
75219;BME280;63801;49.414;19.474;2022-12-10T02:10:41;92260.13;;;1.93;78.72
75219;BME280;63801;49.414;19.474;2022-12-10T02:12:51;92253.13;;;1.89;78.67
75219;BME280;63801;49.414;19.474;2022-12-10T02:14:58;92247.81;;;1.89;78.59
75219;BME280;63801;49.414;19.474;2022-12-10T02:17:03;92265.63;;;1.88;78.75
75219;BME280;63801;49.414;19.474;2022-12-10T02:19:44;92252.81;;;1.90;78.79
75219;BME280;63801;49.414;19.474;2022-12-10T02:21:51;92252.81;;;1.90;78.71
75219;BME280;63801;49.414;19.474;2022-12-10T02:23:57;92251.25;;;1.89;78.77
75219;BME280;63801;49.414;19.474;2022-12-10T02:26:04;92260.22;;;1.97;78.81
75219;BME280;63801;49.414;19.474;2022-12-10T02:30:16;92273.41;;;2.05;78.77
75219;BME280;63801;49.414;19.474;2022-12-10T02:32:21;92269.53;;;2.03;78.53
75219;BME280;63801;49.414;19.474;2022-12-10T02:34:24;92265.44;;;2.05;78.66
75219;BME280;63801;49.414;19.474;2022-12-10T02:36:29;92263.22;;;2.07;78.61
75219;BME280;63801;49.414;19.474;2022-12-10T02:38:34;92247.72;;;1.97;78.63
75219;BME280;63801;49.414;19.474;2022-12-10T02:40:37;92269.75;;;2.10;78.45
75219;BME280;63801;49.414;19.474;2022-12-10T02:42:41;92275.38;;;2.08;78.42
75219;BME280;63801;49.414;19.474;2022-12-10T02:44:44;92268.19;;;1.97;78.53
75219;BME280;63801;49.414;19.474;2022-12-10T02:46:47;92281.84;;;2.07;78.62
75219;BME280;63801;49.414;19.474;2022-12-10T02:48:49;92275.38;;;2.08;78.57
75219;BME280;63801;49.414;19.474;2022-12-10T02:50:51;92273.84;;;2.07;78.49
75219;BME280;63801;49.414;19.474;2022-12-10T02:52:51;92261.78;;;1.98;78.31
75219;BME280;63801;49.414;19.474;2022-12-10T02:54:52;92276.72;;;2.02;78.54
75219;BME280;63801;49.414;19.474;2022-12-10T02:56:59;92266.84;;;1.91;78.26
75219;BME280;63801;49.414;19.474;2022-12-10T03:03:52;92297.75;;;1.95;78.52
75219;BME280;63801;49.414;19.474;2022-12-10T03:08:28;92297.75;;;1.95;78.69
75219;BME280;63801;49.414;19.474;2022-12-10T03:10:45;92274.50;;;1.92;78.46
75219;BME280;63801;49.414;19.474;2022-12-10T03:12:54;92286.47;;;1.98;78.80
75219;BME280;63801;49.414;19.474;2022-12-10T03:15:04;92285.22;;;1.96;78.78
75219;BME280;63801;49.414;19.474;2022-12-10T03:17:05;92288.09;;;1.91;78.64
75219;BME280;63801;49.414;19.474;2022-12-10T03:19:10;92280.91;;;1.79;78.39
75219;BME280;63801;49.414;19.474;2022-12-10T03:21:12;92293.88;;;1.80;78.59
75219;BME280;63801;49.414;19.474;2022-12-10T03:23:16;92292.31;;;1.79;78.38
75219;BME280;63801;49.414;19.474;2022-12-10T03:25:23;92276.47;;;1.71;78.64
75219;BME280;63801;49.414;19.474;2022-12-10T03:27:24;92287.31;;;1.78;78.53
75219;BME280;63801;49.414;19.474;2022-12-10T03:29:28;92289.53;;;1.76;78.50
75219;BME280;63801;49.414;19.474;2022-12-10T03:31:33;92290.31;;;1.76;78.68
75219;BME280;63801;49.414;19.474;2022-12-10T03:33:34;92300.59;;;1.78;78.59
75219;BME280;63801;49.414;19.474;2022-12-10T03:35:35;92309.34;;;1.78;78.50
75219;BME280;63801;49.414;19.474;2022-12-10T03:37:37;92316.63;;;1.81;78.49
75219;BME280;63801;49.414;19.474;2022-12-10T03:39:38;92309.44;;;1.82;78.57
75219;BME280;63801;49.414;19.474;2022-12-10T03:41:38;92310.34;;;1.86;78.84
75219;BME280;63801;49.414;19.474;2022-12-10T03:43:53;92321.75;;;1.87;78.51
75219;BME280;63801;49.414;19.474;2022-12-10T03:45:53;92324.88;;;1.89;78.73
75219;BME280;63801;49.414;19.474;2022-12-10T03:47:54;92318.19;;;1.83;78.49
75219;BME280;63801;49.414;19.474;2022-12-10T03:49:54;92315.03;;;1.89;78.60
75219;BME280;63801;49.414;19.474;2022-12-10T03:51:54;92312.00;;;1.91;78.59
75219;BME280;63801;49.414;19.474;2022-12-10T03:53:55;92319.00;;;1.95;78.67
75219;BME280;63801;49.414;19.474;2022-12-10T03:55:55;92309.94;;;1.96;78.69
75219;BME280;63801;49.414;19.474;2022-12-10T03:57:55;92298.41;;;1.92;78.57
75219;BME280;63801;49.414;19.474;2022-12-10T03:59:56;92310.38;;;1.98;78.61
75219;BME280;63801;49.414;19.474;2022-12-10T04:01:56;92308.63;;;2.02;78.70
75219;BME280;63801;49.414;19.474;2022-12-10T04:03:57;92307.53;;;2.03;78.59
75219;BME280;63801;49.414;19.474;2022-12-10T04:06:05;92308.25;;;2.04;78.56
75219;BME280;63801;49.414;19.474;2022-12-10T04:08:05;92294.66;;;1.93;78.61
75219;BME280;63801;49.414;19.474;2022-12-10T04:10:06;92311.72;;;2.04;78.43
75219;BME280;63801;49.414;19.474;2022-12-10T04:12:07;92318.91;;;2.04;78.47
75219;BME280;63801;49.414;19.474;2022-12-10T04:14:09;92328.63;;;2.00;78.45
75219;BME280;63801;49.414;19.474;2022-12-10T04:16:30;92329.97;;;1.94;78.58
75219;BME280;63801;49.414;19.474;2022-12-10T04:18:30;92330.97;;;1.89;78.64
75219;BME280;63801;49.414;19.474;2022-12-10T04:20:30;92315.31;;;1.75;78.82
75219;BME280;63801;49.414;19.474;2022-12-10T04:22:49;92338.13;;;1.76;78.81
75219;BME280;63801;49.414;19.474;2022-12-10T04:25:11;92336.44;;;1.72;78.89
75219;BME280;63801;49.414;19.474;2022-12-10T04:27:33;92329.47;;;1.67;78.85
75219;BME280;63801;49.414;19.474;2022-12-10T04:29:35;92334.00;;;1.67;78.96
75219;BME280;63801;49.414;19.474;2022-12-10T04:31:35;92336.19;;;1.65;79.03
75219;BME280;63801;49.414;19.474;2022-12-10T04:33:36;92331.34;;;1.67;79.13
75219;BME280;63801;49.414;19.474;2022-12-10T04:35:36;92334.91;;;1.71;78.95
75219;BME280;63801;49.414;19.474;2022-12-10T04:37:37;92342.97;;;1.74;79.17
75219;BME280;63801;49.414;19.474;2022-12-10T04:39:38;92347.97;;;1.76;78.69
75219;BME280;63801;49.414;19.474;2022-12-10T04:41:43;92352.50;;;1.75;78.81
75219;BME280;63801;49.414;19.474;2022-12-10T04:43:44;92354.38;;;1.75;78.79
75219;BME280;63801;49.414;19.474;2022-12-10T04:45:49;92345.84;;;1.69;79.00
75219;BME280;63801;49.414;19.474;2022-12-10T04:47:52;92373.09;;;1.78;78.84
75219;BME280;63801;49.414;19.474;2022-12-10T04:49:53;92371.69;;;1.81;79.05
75219;BME280;63801;49.414;19.474;2022-12-10T04:51:53;92374.78;;;1.83;78.91
75219;BME280;63801;49.414;19.474;2022-12-10T04:53:55;92380.53;;;1.85;78.91
75219;BME280;63801;49.414;19.474;2022-12-10T04:55:55;92386.28;;;1.87;78.87
75219;BME280;63801;49.414;19.474;2022-12-10T04:57:56;92384.41;;;1.88;79.04
75219;BME280;63801;49.414;19.474;2022-12-10T04:59:57;92393.16;;;1.88;78.79
75219;BME280;63801;49.414;19.474;2022-12-10T05:01:57;92402.22;;;1.87;78.91
75219;BME280;63801;49.414;19.474;2022-12-10T05:04:00;92398.38;;;1.85;78.85
75219;BME280;63801;49.414;19.474;2022-12-10T05:06:02;92386.16;;;1.84;78.85
75219;BME280;63801;49.414;19.474;2022-12-10T05:08:03;92396.81;;;1.84;78.87
75219;BME280;63801;49.414;19.474;2022-12-10T05:10:04;92394.16;;;1.84;78.72
75219;BME280;63801;49.414;19.474;2022-12-10T05:12:05;92389.16;;;1.82;78.81
75219;BME280;63801;49.414;19.474;2022-12-10T05:14:05;92377.63;;;1.78;78.97
75219;BME280;63801;49.414;19.474;2022-12-10T05:16:07;92381.41;;;1.77;78.53
75219;BME280;63801;49.414;19.474;2022-12-10T05:18:08;92378.94;;;1.72;78.54
75219;BME280;63801;49.414;19.474;2022-12-10T05:20:09;92376.03;;;1.65;78.44
75219;BME280;63801;49.414;19.474;2022-12-10T05:22:10;92361.41;;;1.59;78.37
75219;BME280;63801;49.414;19.474;2022-12-10T05:24:28;92356.19;;;1.50;78.01
75219;BME280;63801;49.414;19.474;2022-12-10T05:26:29;92352.84;;;1.41;78.34
75219;BME280;63801;49.414;19.474;2022-12-10T05:28:31;92354.00;;;1.31;78.39
75219;BME280;63801;49.414;19.474;2022-12-10T05:30:34;92360.16;;;1.23;78.49
75219;BME280;63801;49.414;19.474;2022-12-10T05:32:35;92361.91;;;1.19;78.45
75219;BME280;63801;49.414;19.474;2022-12-10T05:34:35;92349.94;;;1.13;78.46
75219;BME280;63801;49.414;19.474;2022-12-10T05:36:36;92357.75;;;1.10;78.53
75219;BME280;63801;49.414;19.474;2022-12-10T05:38:36;92364.47;;;1.07;78.48
75219;BME280;63801;49.414;19.474;2022-12-10T05:40:37;92381.06;;;1.04;78.42
75219;BME280;63801;49.414;19.474;2022-12-10T05:42:37;92393.53;;;1.04;78.40
75219;BME280;63801;49.414;19.474;2022-12-10T05:44:37;92394.78;;;1.06;78.77
75219;BME280;63801;49.414;19.474;2022-12-10T05:46:38;92397.09;;;1.08;78.61
75219;BME280;63801;49.414;19.474;2022-12-10T05:48:38;92395.69;;;1.10;78.79
75219;BME280;63801;49.414;19.474;2022-12-10T05:50:39;92391.19;;;1.02;78.61
75219;BME280;63801;49.414;19.474;2022-12-10T05:52:40;92408.63;;;1.12;78.79
75219;BME280;63801;49.414;19.474;2022-12-10T05:54:40;92403.97;;;1.09;78.73
75219;BME280;63801;49.414;19.474;2022-12-10T05:56:40;92414.25;;;1.10;78.65
75219;BME280;63801;49.414;19.474;2022-12-10T05:58:43;92415.34;;;1.09;78.45
75219;BME280;63801;49.414;19.474;2022-12-10T06:00:43;92424.41;;;1.08;78.72
75219;BME280;63801;49.414;19.474;2022-12-10T06:02:44;92429.72;;;1.08;78.67
75219;BME280;63801;49.414;19.474;2022-12-10T06:04:44;92424.41;;;1.08;78.72
75219;BME280;63801;49.414;19.474;2022-12-10T06:06:44;92423.31;;;1.09;78.49
75219;BME280;63801;49.414;19.474;2022-12-10T06:08:46;92425.19;;;1.09;78.62
75219;BME280;63801;49.414;19.474;2022-12-10T06:10:47;92428.81;;;1.04;78.50
75219;BME280;63801;49.414;19.474;2022-12-10T06:12:47;92435.97;;;1.04;78.67
75219;BME280;63801;49.414;19.474;2022-12-10T06:14:47;92450.69;;;1.01;78.64
75219;BME280;63801;49.414;19.474;2022-12-10T06:16:47;92463.94;;;1.01;78.64
75219;BME280;63801;49.414;19.474;2022-12-10T06:18:48;92466.59;;;1.01;78.50
75219;BME280;63801;49.414;19.474;2022-12-10T06:20:48;92468.13;;;1.02;78.49
75219;BME280;63801;49.414;19.474;2022-12-10T06:22:48;92464.84;;;1.05;78.74
75219;BME280;63801;49.414;19.474;2022-12-10T06:24:49;92470.59;;;1.07;78.83
75219;BME280;63801;49.414;19.474;2022-12-10T06:26:49;92470.59;;;1.07;78.62
75219;BME280;63801;49.414;19.474;2022-12-10T06:28:50;92476.03;;;1.11;78.71
75219;BME280;63801;49.414;19.474;2022-12-10T06:30:51;92481.34;;;1.11;78.73
75219;BME280;63801;49.414;19.474;2022-12-10T06:32:51;92480.59;;;1.10;78.56
75219;BME280;63801;49.414;19.474;2022-12-10T06:34:51;92480.13;;;1.08;78.75
75219;BME280;63801;49.414;19.474;2022-12-10T06:36:52;92484.00;;;1.11;78.33
75219;BME280;63801;49.414;19.474;2022-12-10T06:38:55;92491.22;;;1.10;78.35
75219;BME280;63801;49.414;19.474;2022-12-10T06:40:56;92488.09;;;1.08;78.47
75219;BME280;63801;49.414;19.474;2022-12-10T06:42:57;92490.31;;;1.06;78.56
75219;BME280;63801;49.414;19.474;2022-12-10T06:44:57;92485.00;;;1.06;78.61
75219;BME280;63801;49.414;19.474;2022-12-10T06:46:57;92481.09;;;1.04;78.67
75219;BME280;63801;49.414;19.474;2022-12-10T06:48:58;92478.31;;;1.00;78.40
75219;BME280;63801;49.414;19.474;2022-12-10T06:50:58;92476.31;;;0.97;78.23
75219;BME280;63801;49.414;19.474;2022-12-10T06:52:58;92475.53;;;0.97;78.64
75219;BME280;63801;49.414;19.474;2022-12-10T06:54:58;92466.19;;;0.90;78.81
75219;BME280;63801;49.414;19.474;2022-12-10T06:56:59;92477.84;;;0.98;78.31
75219;BME280;63801;49.414;19.474;2022-12-10T06:59:04;92477.38;;;0.96;78.34
75219;BME280;63801;49.414;19.474;2022-12-10T07:01:10;92474.72;;;0.96;78.51
75219;BME280;63801;49.414;19.474;2022-12-10T07:03:11;92480.19;;;1.00;78.51
75219;BME280;63801;49.414;19.474;2022-12-10T07:05:12;92471.00;;;0.97;78.71
75219;BME280;63801;49.414;19.474;2022-12-10T07:07:12;92453.81;;;0.95;78.88
75219;BME280;63801;49.414;19.474;2022-12-10T07:09:13;92472.81;;;1.05;78.68
75219;BME280;63801;49.414;19.474;2022-12-10T07:11:15;92478.75;;;1.02;78.71
75219;BME280;63801;49.414;19.474;2022-12-10T07:13:15;92486.53;;;1.07;78.67
75219;BME280;63801;49.414;19.474;2022-12-10T07:15:16;92468.91;;;1.03;78.61
75219;BME280;63801;49.414;19.474;2022-12-10T07:17:16;92466.25;;;1.03;78.49
75219;BME280;63801;49.414;19.474;2022-12-10T07:19:17;92461.44;;;1.05;78.77
75219;BME280;63801;49.414;19.474;2022-12-10T07:23:19;92468.56;;;1.13;78.59
75219;BME280;63801;49.414;19.474;2022-12-10T07:25:20;92476.97;;;1.15;78.64
75219;BME280;63801;49.414;19.474;2022-12-10T07:27:20;92458.63;;;1.01;78.39
75219;BME280;63801;49.414;19.474;2022-12-10T07:29:21;92478.84;;;1.14;78.40
75219;BME280;63801;49.414;19.474;2022-12-10T07:31:22;92483.03;;;1.15;78.46
75219;BME280;63801;49.414;19.474;2022-12-10T07:33:22;92481.34;;;1.11;78.65
75219;BME280;63801;49.414;19.474;2022-12-10T07:35:22;92496.78;;;1.17;78.54
75219;BME280;63801;49.414;19.474;2022-12-10T07:37:23;92498.34;;;1.18;78.99
75219;BME280;63801;49.414;19.474;2022-12-10T07:39:23;92484.75;;;1.20;78.50
75219;BME280;63801;49.414;19.474;2022-12-10T07:41:24;92480.69;;;1.22;78.58
75219;BME280;63801;49.414;19.474;2022-12-10T07:43:25;92487.09;;;1.21;78.46
75219;BME280;63801;49.414;19.474;2022-12-10T07:45:25;92489.28;;;1.19;78.62
75219;BME280;63801;49.414;19.474;2022-12-10T07:47:25;92498.59;;;1.25;78.55
75219;BME280;63801;49.414;19.474;2022-12-10T07:49:26;92506.69;;;1.29;78.69
75219;BME280;63801;49.414;19.474;2022-12-10T07:51:26;92507.16;;;1.31;78.57
75219;BME280;63801;49.414;19.474;2022-12-10T07:53:26;92517.47;;;1.32;78.51
75219;BME280;63801;49.414;19.474;2022-12-10T07:55:27;92518.69;;;1.35;78.64
75219;BME280;63801;49.414;19.474;2022-12-10T07:57:28;92523.34;;;1.38;78.60
75219;BME280;63801;49.414;19.474;2022-12-10T07:59:30;92527.25;;;1.41;78.41
75219;BME280;63801;49.414;19.474;2022-12-10T08:01:32;92530.38;;;1.43;78.72
75219;BME280;63801;49.414;19.474;2022-12-10T08:03:32;92526.63;;;1.44;78.50
75219;BME280;63801;49.414;19.474;2022-12-10T08:05:33;92521.47;;;1.39;78.10
75219;BME280;63801;49.414;19.474;2022-12-10T08:07:33;92523.84;;;1.40;78.32
75219;BME280;63801;49.414;19.474;2022-12-10T08:09:34;92524.28;;;1.42;78.39
75219;BME280;63801;49.414;19.474;2022-12-10T08:11:35;92520.22;;;1.45;78.45
75219;BME280;63801;49.414;19.474;2022-12-10T08:13:36;92522.53;;;1.46;78.38
75219;BME280;63801;49.414;19.474;2022-12-10T08:15:36;92525.97;;;1.47;78.45
75219;BME280;63801;49.414;19.474;2022-12-10T08:17:37;92539.88;;;1.44;78.46
75219;BME280;63801;49.414;19.474;2022-12-10T08:19:37;92524.78;;;1.35;78.16
75219;BME280;63801;49.414;19.474;2022-12-10T08:21:38;92525.56;;;1.36;78.41
75219;BME280;63801;49.414;19.474;2022-12-10T08:23:38;92523.22;;;1.34;78.48
75219;BME280;63801;49.414;19.474;2022-12-10T08:25:39;92516.34;;;1.33;78.55
75219;BME280;63801;49.414;19.474;2022-12-10T08:27:39;92515.91;;;1.31;78.33
75219;BME280;63801;49.414;19.474;2022-12-10T08:29:39;92510.91;;;1.30;78.57
75219;BME280;63801;49.414;19.474;2022-12-10T08:31:40;92508.72;;;1.32;78.65
75219;BME280;63801;49.414;19.474;2022-12-10T08:33:40;92513.41;;;1.35;78.57
75219;BME280;63801;49.414;19.474;2022-12-10T08:35:41;92517.28;;;1.38;78.42
75219;BME280;63801;49.414;19.474;2022-12-10T08:37:41;92518.69;;;1.35;78.37
75219;BME280;63801;49.414;19.474;2022-12-10T08:39:42;92523.53;;;1.33;78.17
75219;BME280;63801;49.414;19.474;2022-12-10T08:41:44;92522.31;;;1.30;78.12
75219;BME280;63801;49.414;19.474;2022-12-10T08:43:45;92509.22;;;1.25;78.24
75219;BME280;63801;49.414;19.474;2022-12-10T08:45:45;92513.44;;;1.26;78.36
75219;BME280;63801;49.414;19.474;2022-12-10T08:47:45;92514.22;;;1.27;77.97
75219;BME280;63801;49.414;19.474;2022-12-10T08:49:46;92513.75;;;1.25;78.27
75219;BME280;63801;49.414;19.474;2022-12-10T08:51:46;92510.66;;;1.23;78.31
75219;BME280;63801;49.414;19.474;2022-12-10T08:53:47;92497.44;;;1.14;78.20
75219;BME280;63801;49.414;19.474;2022-12-10T08:55:50;92513.94;;;1.20;78.39
75219;BME280;63801;49.414;19.474;2022-12-10T08:57:50;92517.06;;;1.22;78.35
75219;BME280;63801;49.414;19.474;2022-12-10T08:59:51;92510.66;;;1.23;78.28
75219;BME280;63801;49.414;19.474;2022-12-10T09:01:51;92494.13;;;1.17;78.44
75219;BME280;63801;49.414;19.474;2022-12-10T09:03:52;92502.03;;;1.26;78.24
75219;BME280;63801;49.414;19.474;2022-12-10T09:05:54;92476.19;;;1.14;78.35
75219;BME280;63801;49.414;19.474;2022-12-10T09:07:54;92485.50;;;1.20;78.41
75219;BME280;63801;49.414;19.474;2022-12-10T09:09:54;92496.28;;;1.24;78.36
75219;BME280;63801;49.414;19.474;2022-12-10T09:11:55;92500.31;;;1.30;78.19
75219;BME280;63801;49.414;19.474;2022-12-10T09:13:55;92495.16;;;1.25;78.33
75219;BME280;63801;49.414;19.474;2022-12-10T09:15:55;92503.56;;;1.35;78.13
75219;BME280;63801;49.414;19.474;2022-12-10T09:17:56;92504.47;;;1.40;78.31
75219;BME280;63801;49.414;19.474;2022-12-10T09:19:56;92496.97;;;1.42;78.14
75219;BME280;63801;49.414;19.474;2022-12-10T09:21:56;92500.38;;;1.42;78.29
75219;BME280;63801;49.414;19.474;2022-12-10T09:23:57;92501.63;;;1.45;78.47
75219;BME280;63801;49.414;19.474;2022-12-10T09:25:58;92503.19;;;1.46;78.00
75219;BME280;63801;49.414;19.474;2022-12-10T09:27:58;92493.00;;;1.48;78.26
75219;BME280;63801;49.414;19.474;2022-12-10T09:29:59;92488.66;;;1.43;77.76
75219;BME280;63801;49.414;19.474;2022-12-10T09:31:59;92486.91;;;1.47;77.96
75219;BME280;63801;49.414;19.474;2022-12-10T09:33:59;92464.03;;;1.34;77.72
75219;BME280;63801;49.414;19.474;2022-12-10T09:36:05;92485.03;;;1.48;78.11
75219;BME280;63801;49.414;19.474;2022-12-10T09:38:06;92477.91;;;1.40;77.80
75219;BME280;63801;49.414;19.474;2022-12-10T09:40:14;92482.31;;;1.35;77.85
75219;BME280;63801;49.414;19.474;2022-12-10T09:47:02;92495.84;;;1.43;78.21
75219;BME280;63801;49.414;19.474;2022-12-10T09:51:43;92498.19;;;1.44;78.15
75219;BME280;63801;49.414;19.474;2022-12-10T09:53:45;92490.22;;;1.44;78.03
75219;BME280;63801;49.414;19.474;2022-12-10T09:55:48;92493.00;;;1.48;78.01
75219;BME280;63801;49.414;19.474;2022-12-10T09:57:50;92489.69;;;1.51;78.20
75219;BME280;63801;49.414;19.474;2022-12-10T09:59:51;92492.03;;;1.52;78.10
75219;BME280;63801;49.414;19.474;2022-12-10T10:04:21;92489.06;;;1.54;78.15
75219;BME280;63801;49.414;19.474;2022-12-10T10:06:23;92493.72;;;1.57;78.33
75219;BME280;63801;49.414;19.474;2022-12-10T10:08:34;92493.53;;;1.62;78.13
75219;BME280;63801;49.414;19.474;2022-12-10T10:10:39;92495.53;;;1.65;78.19
75219;BME280;63801;49.414;19.474;2022-12-10T10:12:40;92495.66;;;1.68;78.21
75219;BME280;63801;49.414;19.474;2022-12-10T10:14:42;92491.59;;;1.71;78.22
75219;BME280;63801;49.414;19.474;2022-12-10T10:16:47;92502.22;;;1.71;78.08
75219;BME280;63801;49.414;19.474;2022-12-10T10:18:57;92504.34;;;1.77;78.13
75219;BME280;63801;49.414;19.474;2022-12-10T10:21:00;92501.19;;;1.84;78.49
75219;BME280;63801;49.414;19.474;2022-12-10T10:23:00;92496.59;;;1.93;77.91
75219;BME280;63801;49.414;19.474;2022-12-10T10:25:01;92491.94;;;1.90;77.69
75219;BME280;63801;49.414;19.474;2022-12-10T10:27:23;92489.06;;;1.95;77.85
75219;BME280;63801;49.414;19.474;2022-12-10T10:29:24;92470.72;;;1.81;77.50
75219;BME280;63801;49.414;19.474;2022-12-10T10:31:30;92497.69;;;1.92;77.60
75219;BME280;63801;49.414;19.474;2022-12-10T10:33:30;92494.31;;;1.83;77.49
75219;BME280;63801;49.414;19.474;2022-12-10T10:35:32;92495.69;;;1.89;77.34
75219;BME280;63801;49.414;19.474;2022-12-10T10:39:34;92498.34;;;1.89;77.61
75219;BME280;63801;49.414;19.474;2022-12-10T10:41:36;92491.47;;;1.88;77.68
75219;BME280;63801;49.414;19.474;2022-12-10T10:43:42;92474.03;;;1.78;77.52
75219;BME280;63801;49.414;19.474;2022-12-10T10:45:49;92490.88;;;1.83;77.47
75219;BME280;63801;49.414;19.474;2022-12-10T10:50:23;92488.75;;;1.76;77.47
75219;BME280;63801;49.414;19.474;2022-12-10T10:52:36;92483.16;;;1.69;77.40
75219;BME280;63801;49.414;19.474;2022-12-10T10:54:38;92489.44;;;1.64;77.46
75219;BME280;63801;49.414;19.474;2022-12-10T10:56:43;92485.88;;;1.60;77.53
75219;BME280;63801;49.414;19.474;2022-12-10T10:58:49;92489.78;;;1.63;77.73
75219;BME280;63801;49.414;19.474;2022-12-10T11:01:05;92489.00;;;1.62;77.48
75219;BME280;63801;49.414;19.474;2022-12-10T11:03:07;92477.34;;;1.55;77.76
75219;BME280;63801;49.414;19.474;2022-12-10T11:05:16;92479.78;;;1.60;77.72
75219;BME280;63801;49.414;19.474;2022-12-10T11:07:22;92477.91;;;1.60;77.71
75219;BME280;63801;49.414;19.474;2022-12-10T11:09:26;92478.69;;;1.61;77.89
75219;BME280;63801;49.414;19.474;2022-12-10T11:11:34;92472.72;;;1.64;78.08
75219;BME280;63801;49.414;19.474;2022-12-10T11:13:35;92479.28;;;1.66;77.95
75219;BME280;63801;49.414;19.474;2022-12-10T11:15:41;92470.34;;;1.71;77.84
75219;BME280;63801;49.414;19.474;2022-12-10T11:17:46;92457.25;;;1.66;78.14
75219;BME280;63801;49.414;19.474;2022-12-10T11:22:27;92465.03;;;1.71;78.22
75219;BME280;63801;49.414;19.474;2022-12-10T11:24:29;92449.31;;;1.66;77.97